EDT,Max TemperatureF,Mean TemperatureF,Min TemperatureF,Max Dew PointF,MeanDew PointF,Min DewpointF,Max Humidity, Mean Humidity, Min Humidity, Max Sea Level PressureIn, Mean Sea Level PressureIn, Min Sea Level PressureIn, Max VisibilityMiles, Mean VisibilityMiles, Min VisibilityMiles, Max Wind SpeedMPH, Mean Wind SpeedMPH, Max Gust SpeedMPH,PrecipitationIn, CloudCover, Events, WindDirDegrees
2013-8-1,84,76,70,72,69,65,94,85,65,30.04,29.96,29.88,10,7,2,8,2,,0.23,7,Rain,271
2013-8-2,87,76,66,71,66,64,93,78,49,30.03,29.98,29.91,10,8,2,15,3,25,0.60,2,Rain-Thunderstorm,306
2013-8-3,89,79,71,73,71,68,93,83,59,30.04,29.99,29.92,10,6,2,9,1,,0.01,3,Thunderstorm,4
2013-8-4,84,75,66,70,66,57,93,73,40,30.04,29.97,29.90,10,9,5,10,3,,0.00,2,,355
2013-8-5,82,73,64,67,62,57,90,68,47,30.10,30.05,30.01,10,10,9,7,2,,0.00,6,,107
2013-8-6,82,74,66,66,64,62,90,76,56,30.07,30.05,30.00,10,9,5,5,2,,0.23,5,Rain,270
2013-8-7,86,77,70,71,67,66,90,74,55,30.11,30.07,30.04,10,10,9,8,2,,0.00,4,,0
2013-8-8,86,78,71,74,70,68,91,77,60,30.10,30.05,30.01,10,9,3,7,2,,0.00,2,,272
2013-8-9,90,81,73,74,72,69,93,76,59,30.08,30.03,29.99,10,10,6,7,3,,0.00,1,,-1
2013-8-10,91,82,73,75,72,70,91,77,53,30.11,30.07,30.02,10,9,4,10,2,24,0.11,2,Rain-Thunderstorm,261
2013-8-11,91,81,72,73,71,69,93,80,54,30.12,30.07,30.02,10,9,6,10,1,17,0.00,1,Thunderstorm,280
2013-8-12,90,81,72,74,71,68,94,77,50,30.05,30.00,29.95,10,8,2,16,3,26,0.12,2,Rain-Thunderstorm,296
2013-8-13,88,80,72,75,71,69,94,84,57,29.98,29.89,29.79,10,10,5,9,2,,0.07,4,Rain-Thunderstorm,238
2013-8-14,75,69,62,70,63,58,90,74,57,30.10,29.98,29.83,10,10,7,9,5,,0.00,4,,9
2013-8-15,75,67,59,59,56,53,90,70,45,30.18,30.13,30.09,10,10,10,12,2,,0.00,1,,37
2013-8-16,71,66,60,59,57,56,87,74,61,30.19,30.15,30.11,10,10,10,7,2,,0.00,1,,22
2013-8-17,71,67,63,68,64,57,93,88,78,30.20,30.16,30.13,10,5,1,9,5,16,0.45,8,Rain,33
2013-8-18,80,74,68,67,66,64,93,83,61,30.22,30.17,30.12,10,8,1,9,4,,0.06,6,Rain,345
2013-8-19,75,70,66,69,66,63,97,91,82,30.20,30.16,30.11,10,6,0,6,1,,0.75,6,Fog-Rain,29
2013-8-20,84,74,66,71,67,64,93,85,62,30.21,30.16,30.12,10,7,1,6,0,,0.00,4,,51
2013-8-21,82,76,70,74,71,67,93,88,69,30.25,30.19,30.12,10,8,1,9,1,,0.48,5,Rain-Thunderstorm,251
2013-8-22,88,78,69,72,69,67,96,84,53,30.16,30.11,30.00,10,7,0,6,2,,0.00,3,Fog,265
2013-8-23,87,76,68,72,68,63,91,76,58,30.10,30.01,29.94,10,10,7,9,4,,0.02,3,Rain-Thunderstorm,291
2013-8-24,84,73,64,63,60,56,90,69,41,30.31,30.21,30.10,10,10,10,12,6,20,0.00,2,,24
2013-8-25,80,70,60,61,58,53,93,71,40,30.40,30.34,30.30,10,10,5,12,2,16,0.00,0,,39
2013-8-26,82,68,54,60,56,52,93,70,38,30.33,30.23,30.13,10,10,9,7,1,,0.00,0,,270
2013-8-27,89,76,64,72,65,56,90,71,48,30.12,30.03,29.97,10,9,5,7,2,,0.00,0,,279
2013-8-28,82,76,69,74,71,66,93,83,65,29.99,29.95,29.87,8,5,2,6,2,,0.00,0,Rain,282
2013-8-29,87,80,73,71,70,68,87,72,55,30.03,29.93,29.85,10,8,5,9,5,,0.00,3,,2
2013-8-30,87,78,68,67,65,62,93,76,43,30.09,30.03,29.95,10,8,2,6,2,,0.00,2,,40
2013-8-31,88,76,66,71,68,64,93,78,55,29.99,29.94,29.87,10,9,1,8,2,,0.00,3,,250